createdAt,value
2019-02-25T00:01:25.699Z,10.17
2019-02-25T00:04:05.971Z,11.00
2019-02-25T00:06:46.181Z,10.63
2019-02-25T00:09:26.127Z,10.05
2019-02-25T00:12:05.395Z,10.73
2019-02-25T00:14:44.583Z,10.30
2019-02-25T00:17:23.945Z,10.03
2019-02-25T00:20:05.716Z,10.17
2019-02-25T00:22:44.879Z,10.30
2019-02-25T00:25:24.841Z,10.32
2019-02-25T00:28:04.482Z,9.37
2019-02-25T00:30:44.197Z,8.80
2019-02-25T00:33:24.128Z,7.35
2019-02-25T00:36:03.248Z,7.00
2019-02-25T00:38:43.103Z,7.12
2019-02-25T00:41:22.818Z,6.67
2019-02-25T00:44:02.041Z,6.43
2019-02-25T00:46:41.312Z,6.27
2019-02-25T00:49:20.545Z,6.72
2019-02-25T00:51:59.729Z,6.40
2019-02-25T00:54:39.782Z,6.83
2019-02-25T00:57:18.845Z,8.63
2019-02-25T00:59:58.325Z,7.58
2019-02-25T01:02:37.636Z,8.03
2019-02-25T01:05:17.595Z,7.90
2019-02-25T01:07:57.351Z,8.13
2019-02-25T01:10:37.099Z,9.53
2019-02-25T01:13:16.166Z,8.55
2019-02-25T01:15:56.116Z,8.80
2019-02-25T01:18:35.862Z,8.85
2019-02-25T01:21:15.289Z,8.87
2019-02-25T01:23:54.461Z,8.70
2019-02-25T01:26:34.236Z,8.83
2019-02-25T01:29:13.317Z,9.30
2019-02-25T01:31:52.876Z,8.97
2019-02-25T01:34:32.005Z,9.00
2019-02-25T01:37:11.234Z,8.37
2019-02-25T01:39:50.504Z,8.93
2019-02-25T01:42:31.349Z,8.67
2019-02-25T01:45:12.423Z,8.55
2019-02-25T01:47:51.995Z,8.90
2019-02-25T01:50:31.132Z,9.30
2019-02-25T01:53:22.780Z,8.90
2019-02-25T01:56:02.116Z,9.37
2019-02-25T01:58:43.890Z,9.78
2019-02-25T02:01:23.493Z,9.07
2019-02-25T02:04:02.538Z,9.63
2019-02-25T02:06:41.799Z,9.87
2019-02-25T02:09:21.027Z,9.70
2019-02-25T02:12:00.694Z,9.53
2019-02-25T02:14:40.465Z,10.25
2019-02-25T02:17:20.054Z,9.10
2019-02-25T02:19:59.210Z,9.00
2019-02-25T02:22:38.609Z,8.67
2019-02-25T02:25:17.810Z,9.20
2019-02-25T02:27:57.322Z,9.30
2019-02-25T02:30:37.798Z,9.50
2019-02-25T02:33:17.041Z,9.20
2019-02-25T02:35:56.186Z,9.03
2019-02-25T02:38:35.694Z,9.00
2019-02-25T02:41:16.428Z,9.90
2019-02-25T02:43:55.652Z,10.33
2019-02-25T02:47:23.410Z,9.17
2019-02-25T02:50:02.989Z,9.83
2019-02-25T02:52:42.146Z,9.27
2019-02-25T02:55:21.450Z,9.33
2019-02-25T02:58:00.584Z,8.80
2019-02-25T03:00:41.042Z,9.57
2019-02-25T03:03:21.275Z,9.43
2019-02-25T03:06:00.664Z,9.77
2019-02-25T03:08:39.858Z,9.10
2019-02-25T03:11:19.143Z,9.00
2019-02-25T03:13:58.336Z,8.90
2019-02-25T03:16:37.579Z,8.63
2019-02-25T03:19:16.779Z,8.40
2019-02-25T03:21:56.468Z,9.07
2019-02-25T03:24:35.637Z,9.20
2019-02-25T03:27:15.332Z,9.17
2019-02-25T03:29:54.563Z,8.53
2019-02-25T03:32:33.865Z,9.47
2019-02-25T03:35:14.409Z,8.83
2019-02-25T03:37:53.668Z,9.37
2019-02-25T03:40:32.750Z,9.10
2019-02-25T03:43:12.250Z,8.77
2019-02-25T03:45:51.450Z,8.90
2019-02-25T03:48:34.020Z,9.07
2019-02-25T03:51:16.017Z,8.63
2019-02-25T03:53:55.633Z,8.80
2019-02-25T03:56:34.914Z,8.53
2019-02-25T03:59:17.512Z,8.53
2019-02-25T04:01:56.830Z,8.33
2019-02-25T04:04:36.373Z,9.37
2019-02-25T04:07:18.177Z,8.33
2019-02-25T04:09:57.583Z,8.03
2019-02-25T04:12:36.784Z,9.30
2019-02-25T04:15:19.967Z,8.73
2019-02-25T04:17:59.435Z,8.57
2019-02-25T04:20:38.827Z,8.50
2019-02-25T04:23:19.684Z,8.20
2019-02-25T04:26:01.488Z,7.87
2019-02-25T04:28:41.732Z,8.17
2019-02-25T04:31:21.247Z,7.63
2019-02-25T04:34:00.346Z,8.57
2019-02-25T04:36:39.545Z,7.93
2019-02-25T04:39:18.774Z,8.40
2019-02-25T04:41:58.286Z,8.27
2019-02-25T04:44:37.413Z,8.43
2019-02-25T04:47:16.846Z,8.40
2019-02-25T04:49:56.146Z,8.53
2019-02-25T04:52:35.309Z,8.10
2019-02-25T04:55:15.353Z,7.47
2019-02-25T04:57:54.459Z,7.83
2019-02-25T05:00:33.711Z,8.53
2019-02-25T05:03:13.049Z,8.27
2019-02-25T05:05:53.673Z,8.00
2019-02-25T05:08:33.005Z,8.80
2019-02-25T05:11:12.238Z,8.27
2019-02-25T05:13:51.506Z,8.80
2019-02-25T05:16:31.864Z,8.00
2019-02-25T05:19:11.385Z,7.63
2019-02-25T05:21:50.454Z,8.27
2019-02-25T05:24:29.785Z,8.00
2019-02-25T05:27:09.194Z,8.27
2019-02-25T05:29:48.415Z,7.73
2019-02-25T05:32:27.583Z,8.27
2019-02-25T05:35:08.130Z,9.57
2019-02-25T05:37:48.629Z,8.27
2019-02-25T05:40:27.957Z,8.30
2019-02-25T05:43:07.154Z,7.63
2019-02-25T05:45:47.781Z,9.20
2019-02-25T05:48:27.405Z,8.87
2019-02-25T05:51:06.568Z,8.87
2019-02-25T05:53:46.137Z,8.63
2019-02-25T05:56:27.025Z,9.13
2019-02-25T05:59:06.078Z,9.80
2019-02-25T06:01:45.597Z,8.17
2019-02-25T06:04:24.837Z,8.90
2019-02-25T06:07:04.376Z,8.60
2019-02-25T06:09:45.247Z,9.57
2019-02-25T06:12:24.600Z,10.60
2019-02-25T06:15:04.035Z,10.60
2019-02-25T06:17:43.586Z,10.67
2019-02-25T06:20:22.877Z,9.63
2019-02-25T06:23:02.105Z,9.73
2019-02-25T06:25:41.209Z,8.93
2019-02-25T06:28:20.620Z,8.97
2019-02-25T06:30:59.905Z,8.57
2019-02-25T06:33:39.490Z,9.77
2019-02-25T06:36:22.136Z,9.27
2019-02-25T06:39:02.570Z,9.33
2019-02-25T06:41:43.486Z,9.90
2019-02-25T06:44:24.036Z,8.57
2019-02-25T06:47:03.161Z,9.80
2019-02-25T06:49:42.671Z,9.53
2019-02-25T06:52:22.441Z,9.88
2019-02-25T06:55:01.861Z,9.73
2019-02-25T06:57:43.510Z,9.65
2019-02-25T07:00:23.807Z,8.73
2019-02-25T07:03:03.034Z,9.65
2019-02-25T07:06:01.308Z,10.23
2019-02-25T07:08:47.627Z,9.45
2019-02-25T07:11:39.289Z,9.13
2019-02-25T07:14:28.554Z,8.15
2019-02-25T07:17:23.923Z,7.28
2019-02-25T07:20:16.589Z,7.35
2019-02-25T07:23:03.467Z,7.87
2019-02-25T07:26:02.891Z,7.40
2019-02-25T07:29:01.240Z,7.28
2019-02-25T07:32:09.606Z,7.53
2019-02-25T07:35:01.205Z,7.72
2019-02-25T07:37:51.710Z,7.17
2019-02-25T07:40:56.581Z,6.60
2019-02-25T07:44:03.739Z,7.05
2019-02-25T07:47:09.027Z,6.95
2019-02-25T07:50:05.300Z,7.55
2019-02-25T07:53:08.924Z,7.10
2019-02-25T07:56:06.126Z,6.80
2019-02-25T07:59:04.902Z,7.58
2019-02-25T08:01:55.736Z,7.65
2019-02-25T08:04:57.426Z,7.70
2019-02-25T08:07:47.368Z,7.12
2019-02-25T08:10:50.325Z,7.45
2019-02-25T08:13:49.286Z,7.33
2019-02-25T08:16:57.092Z,7.10
2019-02-25T08:19:54.327Z,7.37
2019-02-25T08:22:51.279Z,7.47
2019-02-25T08:25:48.689Z,7.97
2019-02-25T08:28:44.038Z,7.87
2019-02-25T08:31:49.748Z,8.10
2019-02-25T08:34:51.656Z,9.03
2019-02-25T08:37:55.769Z,8.73
2019-02-25T08:41:09.822Z,8.60
2019-02-25T08:44:21.841Z,9.23
2019-02-25T08:47:15.426Z,7.80
2019-02-25T08:49:57.660Z,8.10
2019-02-25T08:52:37.260Z,8.97
2019-02-25T08:55:16.702Z,10.77
2019-02-25T08:57:56.755Z,9.77
2019-02-25T09:00:38.081Z,10.83
2019-02-25T09:03:17.899Z,9.43
2019-02-25T09:06:00.291Z,9.33
2019-02-25T09:08:39.945Z,9.37
2019-02-25T09:11:19.378Z,9.67
2019-02-25T09:13:59.020Z,10.27
2019-02-25T09:16:39.909Z,9.70
2019-02-25T09:19:19.672Z,10.27
2019-02-25T09:21:59.336Z,10.90
2019-02-25T09:24:41.245Z,10.60
2019-02-25T09:27:20.957Z,10.13
2019-02-25T09:30:02.972Z,10.13
2019-02-25T09:32:42.600Z,11.00
2019-02-25T09:35:22.349Z,11.97
2019-02-25T09:38:02.857Z,12.13
2019-02-25T09:40:42.623Z,12.50
2019-02-25T09:43:23.268Z,11.47
2019-02-25T09:46:02.832Z,12.50
2019-02-25T09:48:42.370Z,13.60
2019-02-25T09:51:23.634Z,12.53
2019-02-25T09:54:03.054Z,12.07
2019-02-25T09:56:44.320Z,11.23
2019-02-25T09:59:23.956Z,10.13
2019-02-25T10:02:03.598Z,9.87
2019-02-25T10:04:43.105Z,9.87
2019-02-25T10:07:22.681Z,9.70
2019-02-25T10:10:02.113Z,13.10
2019-02-25T10:12:41.841Z,10.27
2019-02-25T10:15:25.611Z,10.47
2019-02-25T10:18:15.775Z,11.20
2019-02-25T10:20:49.800Z,17.30
2019-02-25T10:23:29.346Z,12.40
2019-02-25T10:26:08.782Z,10.93
2019-02-25T10:28:50.883Z,11.03
2019-02-25T10:31:30.281Z,14.73
2019-02-25T10:34:11.954Z,12.73
2019-02-25T10:36:52.382Z,12.63
2019-02-25T10:39:32.327Z,12.23
2019-02-25T10:42:12.113Z,13.47
2019-02-25T10:44:51.731Z,12.00
2019-02-25T10:47:31.184Z,12.13
2019-02-25T10:50:11.854Z,11.33
2019-02-25T10:52:51.443Z,10.27
2019-02-25T10:55:45.035Z,11.27
2019-02-25T10:58:25.197Z,10.93
2019-02-25T11:01:08.466Z,10.57
2019-02-25T11:03:49.895Z,10.37
2019-02-25T11:06:31.418Z,11.03
2019-02-25T11:09:29.429Z,10.37
2019-02-25T11:12:11.450Z,9.87
2019-02-25T11:14:52.280Z,5.87
2019-02-25T11:17:33.068Z,4.83
2019-02-25T11:20:12.824Z,4.20
2019-02-25T11:22:53.700Z,4.50
2019-02-25T11:25:34.763Z,4.77
2019-02-25T11:28:23.571Z,4.30
2019-02-25T11:30:56.712Z,4.60
2019-02-25T11:33:41.732Z,4.17
2019-02-25T11:36:22.006Z,3.63
2019-02-25T11:39:02.469Z,3.27
2019-02-25T11:41:45.152Z,4.00
2019-02-25T11:44:26.195Z,4.17
2019-02-25T11:47:07.047Z,4.03
2019-02-25T11:49:46.602Z,4.70
2019-02-25T11:52:26.268Z,4.83
2019-02-25T11:55:06.734Z,5.50
2019-02-25T11:57:47.873Z,5.20
2019-02-25T12:00:28.153Z,4.77
2019-02-25T12:03:08.695Z,5.50
2019-02-25T12:05:48.352Z,5.90
2019-02-25T12:08:31.933Z,5.57
2019-02-25T12:11:11.469Z,5.70
2019-02-25T12:13:57.537Z,5.80
2019-02-25T12:16:37.348Z,5.70
2019-02-25T12:19:19.946Z,5.97
2019-02-25T12:22:04.214Z,5.77
2019-02-25T12:24:43.646Z,5.77
2019-02-25T12:27:23.249Z,5.83
2019-02-25T12:30:02.660Z,6.33
2019-02-25T12:32:43.081Z,6.10
2019-02-25T12:35:22.709Z,6.03
2019-02-25T12:38:03.083Z,5.43
2019-02-25T12:40:42.586Z,5.73
2019-02-25T12:43:22.364Z,5.43
2019-02-25T12:46:01.913Z,6.07
2019-02-25T12:48:41.564Z,6.13
2019-02-25T12:51:20.954Z,6.70
2019-02-25T12:54:00.478Z,5.70
2019-02-25T12:56:40.154Z,5.70
2019-02-25T12:59:19.715Z,5.93
2019-02-25T13:01:59.974Z,6.03
2019-02-25T13:04:40.130Z,5.53
2019-02-25T13:07:20.051Z,6.13
2019-02-25T13:10:00.713Z,5.80
2019-02-25T13:12:40.747Z,6.70
2019-02-25T13:15:20.379Z,6.03
2019-02-25T13:18:04.911Z,6.57
2019-02-25T13:20:46.048Z,6.63
2019-02-25T13:23:28.569Z,11.00
2019-02-25T13:26:09.279Z,6.30
2019-02-25T13:28:49.375Z,6.70
2019-02-25T13:31:31.900Z,6.10
2019-02-25T13:34:13.399Z,7.50
2019-02-25T13:37:01.924Z,6.20
2019-02-25T13:39:41.808Z,7.10
2019-02-25T13:42:21.891Z,5.70
2019-02-25T13:45:03.858Z,6.10
2019-02-25T13:47:44.855Z,6.03
2019-02-25T13:50:24.707Z,5.63
2019-02-25T13:53:05.215Z,5.60
2019-02-25T13:55:44.781Z,5.70
2019-02-25T13:58:24.803Z,5.73
2019-02-25T14:01:04.808Z,6.13
2019-02-25T14:03:44.303Z,6.50
2019-02-25T14:06:23.889Z,5.37
2019-02-25T14:09:09.082Z,5.53
2019-02-25T14:11:50.138Z,5.93
2019-02-25T14:14:29.870Z,5.73
2019-02-25T14:17:10.641Z,5.83
2019-02-25T14:19:51.962Z,5.97
2019-02-25T14:22:31.510Z,5.70
2019-02-25T14:25:14.594Z,5.80
2019-02-25T14:27:54.615Z,5.10
2019-02-25T14:30:35.567Z,5.43
2019-02-25T14:33:15.157Z,5.37
2019-02-25T14:35:55.672Z,5.70
2019-02-25T14:38:37.129Z,5.60
2019-02-25T14:41:21.066Z,5.03
2019-02-25T14:44:00.069Z,4.93
2019-02-25T14:46:40.743Z,5.03
2019-02-25T14:49:21.050Z,6.10
2019-02-25T14:52:05.353Z,5.43
2019-02-25T14:54:46.370Z,5.43
2019-02-25T14:57:28.718Z,6.47
2019-02-25T15:00:15.596Z,5.63
2019-02-25T15:02:55.609Z,5.47
2019-02-25T15:05:35.128Z,5.63
2019-02-25T15:08:16.815Z,6.00
2019-02-25T15:11:00.008Z,6.10
2019-02-25T15:13:39.091Z,5.90
2019-02-25T15:16:22.918Z,6.10
2019-02-25T15:19:03.097Z,5.67
2019-02-25T15:21:43.264Z,5.63
2019-02-25T15:24:26.881Z,6.40
2019-02-25T15:27:27.160Z,5.93
2019-02-25T15:30:11.888Z,5.93
2019-02-25T15:32:58.444Z,5.67
2019-02-25T15:35:37.556Z,6.17
2019-02-25T15:38:28.996Z,6.20
2019-02-25T15:41:11.173Z,6.10
2019-02-25T15:43:52.492Z,6.60
2019-02-25T15:46:32.935Z,6.07
2019-02-25T15:49:14.785Z,6.57
2019-02-25T15:51:58.467Z,5.80
2019-02-25T15:54:41.427Z,6.67
2019-02-25T15:57:22.553Z,6.95
2019-02-25T16:00:04.321Z,6.37
2019-02-25T16:02:44.374Z,7.00
2019-02-25T16:05:27.383Z,6.22
2019-02-25T16:08:08.632Z,6.42
2019-02-25T16:10:50.947Z,10.25
2019-02-25T16:13:31.050Z,8.30
2019-02-25T16:16:13.577Z,8.35
2019-02-25T16:18:53.596Z,7.50
2019-02-25T16:21:33.615Z,8.80
2019-02-25T16:24:14.192Z,9.08
2019-02-25T16:26:56.259Z,8.68
2019-02-25T16:29:36.464Z,10.30
2019-02-25T16:32:17.818Z,10.08
2019-02-25T16:35:02.574Z,9.63
2019-02-25T16:37:43.728Z,8.90
2019-02-25T16:40:28.439Z,9.30
2019-02-25T16:43:07.744Z,7.67
2019-02-25T16:45:48.435Z,8.28
2019-02-25T16:48:30.284Z,11.33
2019-02-25T16:51:12.595Z,11.05
2019-02-25T16:53:52.839Z,11.53
2019-02-25T16:56:32.700Z,10.53
2019-02-25T16:59:15.640Z,10.63
2019-02-25T17:01:57.765Z,8.00
2019-02-25T17:04:37.067Z,9.33
2019-02-25T17:07:18.297Z,13.50
2019-02-25T17:10:05.378Z,13.88
2019-02-25T17:12:45.741Z,14.58
2019-02-25T17:15:29.532Z,14.10
2019-02-25T17:18:09.568Z,13.85
2019-02-25T17:20:51.436Z,12.98
2019-02-25T17:23:34.368Z,13.30
2019-02-25T17:26:20.655Z,14.53
2019-02-25T17:29:03.563Z,12.85
2019-02-25T17:31:45.564Z,11.80
2019-02-25T17:34:26.381Z,14.50
2019-02-25T17:37:10.248Z,11.68
2019-02-25T17:39:54.073Z,12.60
2019-02-25T17:42:33.587Z,15.48
2019-02-25T17:45:15.994Z,14.40
2019-02-25T17:47:58.357Z,13.15
2019-02-25T17:50:39.313Z,14.45
2019-02-25T17:53:22.363Z,13.80
2019-02-25T17:56:04.644Z,14.73
2019-02-25T17:58:46.727Z,15.88
2019-02-25T18:01:28.587Z,13.35
2019-02-25T18:04:10.912Z,13.35
2019-02-25T18:06:51.978Z,11.78
2019-02-25T18:09:32.455Z,12.40
2019-02-25T18:12:20.674Z,12.10
2019-02-25T18:15:03.431Z,12.95
2019-02-25T18:17:44.868Z,11.75
2019-02-25T18:20:25.637Z,11.97
2019-02-25T18:23:05.639Z,12.18
2019-02-25T18:25:48.533Z,11.70
2019-02-25T18:28:28.587Z,12.28
2019-02-25T18:31:11.173Z,11.63
2019-02-25T18:33:53.139Z,11.40
2019-02-25T18:36:33.450Z,11.40
2019-02-25T18:39:15.187Z,12.28
2019-02-25T18:41:55.553Z,12.45
2019-02-25T18:44:36.867Z,11.38
2019-02-25T18:47:20.628Z,11.53
2019-02-25T18:50:00.962Z,11.22
2019-02-25T18:52:44.357Z,10.50
2019-02-25T18:55:25.447Z,11.80
2019-02-25T18:58:10.164Z,11.05
2019-02-25T19:00:51.470Z,12.13
2019-02-25T19:03:35.465Z,11.43
2019-02-25T19:06:17.214Z,11.78
2019-02-25T19:08:58.530Z,11.88
2019-02-25T19:11:40.431Z,12.85
2019-02-25T19:14:24.207Z,12.78
2019-02-25T19:17:08.173Z,13.28
2019-02-25T19:19:51.530Z,13.38
2019-02-25T19:22:33.427Z,13.43
2019-02-25T19:25:18.143Z,13.83
2019-02-25T19:27:59.170Z,13.83
2019-02-25T19:30:39.745Z,13.62
2019-02-25T19:33:20.664Z,13.58
2019-02-25T19:36:02.846Z,13.78
2019-02-25T19:38:44.146Z,14.93
2019-02-25T19:41:29.464Z,13.03
2019-02-25T19:44:06.502Z,14.33
2019-02-25T19:46:51.241Z,14.45
2019-02-25T19:49:34.177Z,12.30
2019-02-25T19:52:16.962Z,10.72
2019-02-25T19:54:57.126Z,11.45
2019-02-25T19:57:38.005Z,11.03
2019-02-25T20:00:25.579Z,11.03
2019-02-25T20:03:06.489Z,11.80
2019-02-25T20:05:46.993Z,11.88
2019-02-25T20:08:28.208Z,10.90
2019-02-25T20:11:09.704Z,10.53
2019-02-25T20:13:49.466Z,13.05
2019-02-25T20:16:30.453Z,12.20
2019-02-25T20:19:11.692Z,10.48
2019-02-25T20:21:54.713Z,11.33
2019-02-25T20:24:39.791Z,11.88
2019-02-25T20:27:18.037Z,11.85
2019-02-25T20:30:07.035Z,12.18
2019-02-25T20:32:47.427Z,12.23
2019-02-25T20:35:29.049Z,12.10
2019-02-25T20:38:09.152Z,13.05
2019-02-25T20:40:50.814Z,11.93
2019-02-25T20:43:32.377Z,12.63
2019-02-25T20:46:13.448Z,11.35
2019-02-25T20:48:55.472Z,11.97
2019-02-25T20:51:36.186Z,13.75
2019-02-25T20:54:18.586Z,16.97
2019-02-25T20:56:58.718Z,13.18
2019-02-25T20:59:38.666Z,12.00
2019-02-25T21:02:20.759Z,11.28
2019-02-25T21:05:00.369Z,12.68
2019-02-25T21:07:40.750Z,11.57
2019-02-25T21:10:22.781Z,12.28
2019-02-25T21:13:02.819Z,12.53
2019-02-25T21:15:48.191Z,11.48
2019-02-25T21:18:31.030Z,11.18
2019-02-25T21:21:12.326Z,10.53
2019-02-25T21:23:53.850Z,11.68
2019-02-25T21:26:35.856Z,12.05
2019-02-25T21:29:15.347Z,11.55
2019-02-25T21:31:59.844Z,12.50
2019-02-25T21:34:40.311Z,12.50
2019-02-25T21:37:21.385Z,12.90
2019-02-25T21:40:02.920Z,12.20
2019-02-25T21:42:44.356Z,12.50
2019-02-25T21:45:27.510Z,12.68
2019-02-25T21:48:08.740Z,12.68
2019-02-25T21:50:50.098Z,13.25
2019-02-25T21:53:29.990Z,12.55
2019-02-25T21:56:09.754Z,13.18
2019-02-25T21:58:53.129Z,13.08
2019-02-25T22:01:34.537Z,13.93
2019-02-25T22:04:17.891Z,12.65
2019-02-25T22:07:00.845Z,12.78
2019-02-25T22:09:43.121Z,12.07
2019-02-25T22:12:22.876Z,12.80
2019-02-25T22:15:02.943Z,12.53
2019-02-25T22:17:46.070Z,12.30
2019-02-25T22:20:28.174Z,12.23
2019-02-25T22:23:14.187Z,13.13
2019-02-25T22:25:54.613Z,12.20
2019-02-25T22:28:37.023Z,12.28
2019-02-25T22:31:18.122Z,11.05
2019-02-25T22:33:58.183Z,11.85
2019-02-25T22:36:43.745Z,12.45
2019-02-25T22:39:23.417Z,12.35
2019-02-25T22:42:05.677Z,12.60
2019-02-25T22:44:47.487Z,12.03
2019-02-25T22:47:27.148Z,12.55
2019-02-25T22:50:13.445Z,12.35
2019-02-25T22:52:58.207Z,12.03
2019-02-25T22:55:39.231Z,11.45
2019-02-25T22:58:17.858Z,11.85
2019-02-25T23:01:10.124Z,11.57
2019-02-25T23:03:55.038Z,11.40
2019-02-25T23:06:34.236Z,11.60
2019-02-25T23:09:18.866Z,11.45
2019-02-25T23:12:01.193Z,11.55
2019-02-25T23:14:44.092Z,10.93
2019-02-25T23:17:31.080Z,12.05
2019-02-25T23:20:22.960Z,11.83
2019-02-25T23:23:06.266Z,11.22
2019-02-25T23:25:46.844Z,11.97
2019-02-25T23:28:28.587Z,11.90
2019-02-25T23:31:07.903Z,11.30
2019-02-25T23:33:57.391Z,11.33
2019-02-25T23:36:40.686Z,11.60
2019-02-25T23:39:18.581Z,11.20
2019-02-25T23:42:00.596Z,11.45
2019-02-25T23:44:40.301Z,11.88
2019-02-25T23:47:20.019Z,11.20
2019-02-25T23:50:04.150Z,11.60
2019-02-25T23:52:46.445Z,11.73
2019-02-25T23:55:27.783Z,12.07
2019-02-25T23:58:10.275Z,12.47
